Time;durP1;ratioP1;P1;durP2;ratioP2;P2;SDS_P1;SDS_P2;PMS_P1;PMS_P2;Temp;Humidity;BMP_temperature;BMP_pressure;BME280_temperature;BME280_humidity;BME280_pressure;Samples;Min_cycle;Max_cycle;Signal;HPM_P1;HPM_P2
2024/01/16 00:02:57;;;;;;;;;58.50;46.00;;;;;3.34;66.66;100612.19;4811918;29;44931;-81
2024/01/16 00:05:22;;;;;;;;;52.00;46.00;;;;;3.34;67.07;100614.81;4810865;29;44976;-80
2024/01/16 00:07:49;;;;;;;;;50.75;44.50;;;;;3.35;67.17;100623.59;4812030;29;45158;-81
2024/01/16 00:10:15;;;;;;;;;46.00;42.75;;;;;3.26;66.46;100597.84;4811801;29;44816;-80
2024/01/16 00:12:42;;;;;;;;;45.00;41.50;;;;;3.37;67.16;100609.72;4809457;29;44920;-79
2024/01/16 00:15:08;;;;;;;;;47.50;44.25;;;;;3.34;67.04;100619.19;4809868;29;44832;-80
2024/01/16 00:17:34;;;;;;;;;51.50;46.00;;;;;3.29;67.08;100608.50;4811534;29;47214;-80
2024/01/16 00:20:00;;;;;;;;;45.25;41.75;;;;;3.24;66.68;100596.88;4812012;29;44914;-79
2024/01/16 00:22:27;;;;;;;;;45.50;37.00;;;;;3.26;67.25;100604.84;4811676;29;45326;-79
2024/01/16 00:24:52;;;;;;;;;46.50;41.00;;;;;3.25;67.26;100606.56;4810506;29;45307;-80
2024/01/16 00:27:18;;;;;;;;;36.75;36.75;;;;;3.23;67.55;100600.34;4810847;29;45025;-79
2024/01/16 00:29:43;;;;;;;;;37.00;35.25;;;;;3.23;67.46;100599.44;4810863;29;44895;-80
2024/01/16 00:32:08;;;;;;;;;36.50;36.50;;;;;3.24;67.26;100602.16;4810992;29;44764;-80
2024/01/16 00:34:34;;;;;;;;;39.50;37.00;;;;;3.25;67.26;100601.28;4811365;29;44821;-80
2024/01/16 00:36:59;;;;;;;;;43.00;39.50;;;;;3.23;67.49;100602.06;4812093;29;45065;-80
2024/01/16 00:39:25;;;;;;;;;45.50;42.00;;;;;3.22;67.52;100603.81;4812093;29;45197;-80
2024/01/16 00:41:50;;;;;;;;;40.50;39.00;;;;;3.23;67.13;100609.97;4810591;29;44788;-80
2024/01/16 00:44:16;;;;;;;;;43.75;41.75;;;;;3.19;67.46;100604.59;4810694;29;44926;-79
2024/01/16 00:46:41;;;;;;;;;47.25;40.00;;;;;3.21;67.53;100604.63;4809013;29;46749;-81
2024/01/16 00:49:08;;;;;;;;;48.50;44.00;;;;;3.27;67.68;100607.50;4810708;29;44784;-80
2024/01/16 00:51:33;;;;;;;;;49.25;43.75;;;;;3.17;67.79;100610.59;4823952;29;45267;-81
2024/01/16 00:53:59;;;;;;;;;47.50;39.25;;;;;3.07;67.87;100593.56;4827910;29;44867;-81
2024/01/16 00:56:26;;;;;;;;;50.50;45.00;;;;;3.11;67.58;100599.81;4829906;29;45053;-81
2024/01/16 00:58:53;;;;;;;;;47.75;43.50;;;;;3.09;67.47;100604.13;4828476;29;44966;-80
2024/01/16 01:01:19;;;;;;;;;48.75;42.50;;;;;3.07;67.89;100604.09;4797878;29;44807;-79
2024/01/16 01:03:45;;;;;;;;;38.25;35.75;;;;;3.05;67.77;100599.56;4828926;29;44789;-79
2024/01/16 01:06:11;;;;;;;;;50.00;45.00;;;;;3.06;68.05;100602.28;4812575;29;47080;-80
2024/01/16 01:08:36;;;;;;;;;39.75;35.25;;;;;3.05;67.90;100604.81;4797279;29;44817;-78
2024/01/16 01:11:02;;;;;;;;;49.75;44.00;;;;;3.07;68.51;100597.91;4813298;29;44770;-79
2024/01/16 01:13:28;;;;;;;;;48.75;45.00;;;;;3.01;68.28;100582.81;4812277;29;44863;-80
2024/01/16 01:15:54;;;;;;;;;48.50;42.00;;;;;2.97;68.04;100578.25;4827795;29;45138;-80
2024/01/16 01:18:19;;;;;;;;;44.50;41.25;;;;;3.00;68.28;100581.00;4827542;29;44997;-80
2024/01/16 01:20:45;;;;;;;;;42.75;37.00;;;;;2.88;68.99;100570.88;4811683;29;44871;-81
2024/01/16 01:23:10;;;;;;;;;44.50;41.75;;;;;2.86;68.72;100577.78;4828495;29;44828;-80
2024/01/16 01:25:37;;;;;;;;;38.67;35.67;;;;;2.93;68.90;100590.38;4828023;29;45223;-80
2024/01/16 01:28:03;;;;;;;;;38.67;35.00;;;;;2.84;69.50;100583.81;4811288;29;45037;-80
2024/01/16 01:30:28;;;;;;;;;33.67;33.67;;;;;2.86;69.06;100598.81;4827232;29;45299;-80
2024/01/16 01:32:53;;;;;;;;;40.67;39.67;;;;;2.86;69.27;100595.28;4811101;29;44782;-79
2024/01/16 01:35:19;;;;;;;;;38.33;37.33;;;;;2.87;69.20;100607.56;4810354;29;47034;-79
2024/01/16 01:41:44;;;;;;;;;38.00;37.00;;;;;2.98;69.48;100604.56;4827961;29;44869;-79
2024/01/16 01:44:15;;;;;;;;;37.33;34.67;;;;;2.83;69.24;100624.94;4826126;29;45390;-80
2024/01/16 01:46:41;;;;;;;;;41.33;40.00;;;;;2.80;69.37;100619.53;4826010;29;47344;-79
2024/01/16 01:49:07;;;;;;;;;35.67;35.67;;;;;2.85;69.65;100633.78;4826600;29;44873;-80
2024/01/16 01:51:39;;;;;;;;;43.00;38.00;;;;;2.87;69.86;100621.63;4824832;29;44833;-79
2024/01/16 01:54:05;;;;;;;;;40.50;38.25;;;;;2.81;69.77;100621.34;4826877;29;44812;-79
2024/01/16 01:56:31;;;;;;;;;37.75;37.25;;;;;2.83;70.21;100624.94;4826951;29;45155;-80
2024/01/16 01:58:58;;;;;;;;;41.33;37.33;;;;;2.80;69.68;100619.53;4811441;29;45369;-80
2024/01/16 02:01:25;;;;;;;;;33.67;33.67;;;;;2.81;69.77;100618.72;4827033;29;45147;-81
2024/01/16 02:07:14;;;;;;;;;39.00;34.67;;;;;2.70;69.53;100619.97;4827198;29;45110;-79
2024/01/16 02:09:40;;;;;;;;;39.00;36.67;;;;;2.66;69.96;100615.44;4810026;29;44960;-79
2024/01/16 02:12:07;;;;;;;;;35.67;35.00;;;;;2.67;70.05;100625.13;4810035;29;44834;-81
2024/01/16 02:14:32;;;;;;;;;41.00;35.67;;;;;2.60;70.02;100616.94;4825361;29;45118;-80
2024/01/16 02:16:58;;;;;;;;;36.67;34.00;;;;;2.57;70.04;100608.94;4810699;29;46981;-79
2024/01/16 02:19:25;;;;;;;;;41.00;38.67;;;;;2.57;70.03;100616.81;4809810;29;45275;-80
2024/01/16 02:21:54;;;;;;;;;38.33;36.67;;;;;2.55;70.41;100596.59;4810836;29;44885;-80
2024/01/16 02:24:20;;;;;;;;;36.33;34.67;;;;;2.53;70.44;100604.38;4826853;29;44954;-80
2024/01/16 02:26:45;;;;;;;;;49.75;42.25;;;;;2.53;70.28;100608.75;4810317;29;47308;-80
2024/01/16 02:29:11;;;;;;;;;39.25;36.25;;;;;2.50;70.63;100604.25;4810965;29;45305;-81
2024/01/16 02:31:37;;;;;;;;;42.25;39.50;;;;;2.52;70.38;100599.94;4810114;29;45520;-81
2024/01/16 02:34:04;;;;;;;;;43.00;37.25;;;;;2.51;71.01;100589.41;4810008;29;44935;-80
2024/01/16 02:36:29;;;;;;;;;32.33;31.33;;;;;2.49;70.43;100578.84;4809712;29;47212;-81
2024/01/16 02:38:55;;;;;;;;;42.50;41.00;;;;;2.46;70.56;100576.06;4826209;29;44746;-81
2024/01/16 02:41:20;;;;;;;;;41.50;39.00;;;;;2.47;70.91;100580.50;4826522;29;44872;-80
2024/01/16 02:43:46;;;;;;;;;30.75;26.50;;;;;2.50;70.92;100585.88;4827094;29;44832;-80
2024/01/16 02:46:12;;;;;;;;;40.50;38.50;;;;;2.44;70.97;100577.72;4810499;29;47129;-80
2024/01/16 02:48:38;;;;;;;;;39.25;36.75;;;;;2.44;70.55;100576.84;4825905;29;44888;-80
2024/01/16 02:51:04;;;;;;;;;42.50;37.50;;;;;2.44;70.86;100572.47;4824296;29;44913;-81
2024/01/16 02:53:31;;;;;;;;;40.75;40.75;;;;;2.44;70.73;100568.97;4824687;29;45029;-79
2024/01/16 02:55:58;;;;;;;;;40.25;37.00;;;;;2.35;71.14;100566.84;4809738;29;47201;-79
2024/01/16 02:58:24;;;;;;;;;50.75;43.00;;;;;2.35;71.21;100564.22;4827546;29;44706;-79
2024/01/16 03:00:50;;;;;;;;;49.25;42.25;;;;;2.33;71.33;100563.25;4810949;29;44966;-79
2024/01/16 03:03:16;;;;;;;;;39.00;38.00;;;;;2.27;71.31;100553.38;4826533;29;44742;-80
2024/01/16 03:05:42;;;;;;;;;39.50;35.25;;;;;2.32;71.01;100566.69;4809610;29;47353;-79
2024/01/16 03:08:07;;;;;;;;;37.25;36.25;;;;;2.31;71.44;100555.31;4809904;29;44918;-78
2024/01/16 03:10:32;;;;;;;;;37.75;34.75;;;;;2.29;71.43;100558.69;4794720;29;45393;-80
2024/01/16 03:12:58;;;;;;;;;42.33;39.00;;;;;2.30;71.46;100557.84;4810380;29;45105;-80
2024/01/16 03:15:24;;;;;;;;;42.50;36.75;;;;;2.28;71.68;100547.28;4809123;29;47226;-79
2024/01/16 03:17:50;;;;;;;;;38.50;35.50;;;;;2.27;71.42;100539.38;4825328;29;44787;-80
2024/01/16 03:20:17;;;;;;;;;40.75;39.00;;;;;2.31;71.29;100551.78;4836438;29;44913;-79
2024/01/16 03:22:44;;;;;;;;;43.00;40.00;;;;;2.32;71.07;100556.19;4828689;29;44815;-79
2024/01/16 03:25:12;;;;;;;;;39.50;34.00;;;;;2.27;71.35;100552.47;4843681;29;45261;-80
2024/01/16 03:27:38;;;;;;;;;38.75;34.75;;;;;2.28;71.12;100551.63;4827144;29;45292;-79
2024/01/16 03:30:04;;;;;;;;;47.75;38.50;;;;;2.32;71.57;100550.94;4845305;29;45196;-82
2024/01/16 03:32:30;;;;;;;;;38.75;35.25;;;;;2.28;71.12;100554.25;4845063;29;44935;-79
2024/01/16 03:34:56;;;;;;;;;41.00;37.25;;;;;2.34;71.44;100554.53;4828675;29;47341;-79
2024/01/16 03:37:22;;;;;;;;;33.67;33.33;;;;;2.25;71.65;100559.38;4843877;29;44879;-79
2024/01/16 03:39:47;;;;;;;;;29.75;28.00;;;;;2.25;71.85;100560.28;4843339;29;50533;-79
2024/01/16 03:42:13;;;;;;;;;37.25;32.50;;;;;2.28;71.90;100564.75;4827423;29;44863;-81
2024/01/16 03:44:40;;;;;;;;;35.50;33.50;;;;;2.30;71.80;100560.47;4825751;29;47239;-80
2024/01/16 03:47:06;;;;;;;;;33.00;31.67;;;;;2.25;71.36;100559.38;4827063;29;44794;-78
2024/01/16 03:49:33;;;;;;;;;32.25;29.25;;;;;2.25;71.57;100554.13;4844583;29;45134;-78
2024/01/16 03:51:58;;;;;;;;;30.00;30.00;;;;;2.18;71.61;100552.94;4842229;29;44882;-80
2024/01/16 03:54:24;;;;;;;;;35.00;32.50;;;;;2.16;71.88;100547.66;4844044;29;45257;-79
2024/01/16 03:56:49;;;;;;;;;40.00;33.75;;;;;2.15;71.56;100542.34;4828267;29;44902;-79
2024/01/16 03:59:14;;;;;;;;;30.67;30.67;;;;;2.11;71.58;100538.66;4845396;29;44854;-80
2024/01/16 04:01:41;;;;;;;;;27.00;26.33;;;;;2.09;71.92;100542.94;4828138;29;44975;-79
2024/01/16 04:04:07;;;;;;;;;33.00;27.25;;;;;2.08;71.61;100548.13;4827175;29;47486;-81
2024/01/16 04:06:32;;;;;;;;;32.33;32.33;;;;;2.01;72.14;100536.47;4843590;29;44890;-78
2024/01/16 04:08:58;;;;;;;;;32.75;32.75;;;;;2.00;72.13;100542.56;4826512;29;45305;-79
2024/01/16 04:11:23;;;;;;;;;33.50;30.75;;;;;2.03;71.77;100547.03;4826098;29;45119;-80
2024/01/16 04:13:49;;;;;;;;;34.00;31.67;;;;;2.04;71.64;100549.72;4841883;29;45416;-79
2024/01/16 04:16:15;;;;;;;;;40.25;34.00;;;;;1.98;72.04;100531.97;4825863;29;45348;-78
2024/01/16 04:18:42;;;;;;;;;27.00;26.75;;;;;2.09;72.12;100542.94;4841447;29;44811;-81
2024/01/16 04:21:08;;;;;;;;;33.75;30.75;;;;;2.00;72.46;100532.06;4823811;29;44988;-81
2024/01/16 04:23:33;;;;;;;;;28.33;27.00;;;;;2.02;72.25;100540.91;4824954;29;45608;-81
2024/01/16 04:25:59;;;;;;;;;33.00;29.25;;;;;1.98;72.20;100525.84;4825898;29;44948;-81
2024/01/16 04:28:26;;;;;;;;;34.25;29.50;;;;;2.06;72.46;100519.22;4824921;29;44802;-80
2024/01/16 04:30:52;;;;;;;;;32.75;32.75;;;;;2.01;72.24;100512.84;4808672;29;44991;-79
2024/01/16 04:33:18;;;;;;;;;34.75;33.75;;;;;2.00;72.56;100518.94;4826528;29;45050;-78
2024/01/16 04:35:44;;;;;;;;;44.75;38.25;;;;;1.99;72.74;100525.91;4812565;29;44844;-79
2024/01/16 04:38:09;;;;;;;;;37.75;34.75;;;;;1.99;72.92;100522.38;4829623;29;44822;-80
2024/01/16 04:40:35;;;;;;;;;36.67;33.67;;;;;1.95;72.70;100504.72;4829284;29;44803;-80
2024/01/16 04:43:00;;;;;;;;;32.00;29.67;;;;;2.02;72.59;100514.66;4812103;29;47233;-79
2024/01/16 04:45:26;;;;;;;;;32.33;30.00;;;;;1.98;72.99;100517.97;4828958;29;44885;-80
2024/01/16 04:47:51;;;;;;;;;31.67;28.67;;;;;1.98;72.54;100508.38;4827858;29;44868;-80
2024/01/16 04:50:18;;;;;;;;;31.00;28.00;;;;;2.08;72.40;100504.44;4827891;29;44801;-80
2024/01/16 04:52:43;;;;;;;;;30.67;27.00;;;;;2.06;72.84;100499.94;4827321;29;45243;-80
2024/01/16 04:55:09;;;;;;;;;33.33;30.33;;;;;2.07;73.00;100507.00;4810358;29;45039;-81
2024/01/16 04:57:35;;;;;;;;;27.75;27.75;;;;;2.12;72.83;100494.97;4827643;29;44845;-79
2024/01/16 05:00:06;;;;;;;;;30.33;29.33;;;;;2.07;72.66;100488.63;4828659;29;44864;-79
2024/01/16 05:02:39;;;;;;;;;28.00;27.00;;;;;2.01;72.88;100486.63;4812012;29;45300;-80
2024/01/16 05:05:06;;;;;;;;;29.33;27.67;;;;;2.02;73.03;100477.03;4812157;29;44832;-79
2024/01/16 05:07:31;;;;;;;;;35.67;32.33;;;;;1.99;72.92;100483.03;4812188;29;45198;-78
2024/01/16 05:09:57;;;;;;;;;36.75;31.25;;;;;1.97;72.89;100474.22;4828082;29;44821;-80
2024/01/16 05:12:23;;;;;;;;;28.50;26.00;;;;;1.96;73.38;100472.41;4828328;29;45075;-80
2024/01/16 05:14:48;;;;;;;;;26.67;26.67;;;;;1.93;73.00;100474.91;4812002;29;45421;-80
2024/01/16 05:17:14;;;;;;;;;32.00;32.00;;;;;1.93;73.21;100467.03;4827887;29;44937;-78
2024/01/16 05:19:45;;;;;;;;;31.00;31.00;;;;;1.85;72.88;100452.69;4823953;29;44912;-78
2024/01/16 05:22:11;;;;;;;;;29.00;28.00;;;;;1.90;72.90;100461.63;4827484;29;45693;-79
2024/01/16 05:24:37;;;;;;;;;35.50;31.75;;;;;1.90;73.04;100465.19;4829433;29;45286;-80
2024/01/16 05:27:08;;;;;;;;;32.50;30.50;;;;;1.92;73.19;100470.47;4828097;29;44852;-80
2024/01/16 05:29:39;;;;;;;;;32.50;30.50;;;;;1.95;73.27;100475.88;4827754;29;44951;-78
2024/01/16 05:32:11;;;;;;;;;36.00;33.00;;;;;2.10;73.81;100460.81;4828436;29;45866;-80
2024/01/16 05:37:59;;;;;;;;;35.75;35.00;;;;;2.01;73.19;100481.38;4827506;29;44910;-80
2024/01/16 05:40:25;;;;;;;;;40.50;40.00;;;;;2.04;73.47;100481.53;4810613;29;44887;-79
2024/01/16 05:42:51;;;;;;;;;48.00;43.25;;;;;2.03;73.03;100471.84;4811266;29;47240;-81
2024/01/16 05:45:17;;;;;;;;;46.75;39.00;;;;;2.01;73.58;100473.50;4824566;29;45021;-79
2024/01/16 05:47:42;;;;;;;;;50.25;45.75;;;;;1.99;73.56;100469.94;4809020;29;44772;-81
2024/01/16 05:50:08;;;;;;;;;44.50;40.50;;;;;1.94;73.13;100455.69;4828769;29;45363;-80
2024/01/16 05:52:34;;;;;;;;;43.25;43.00;;;;;1.86;73.68;100455.38;4805640;29;46898;-79
2024/01/16 05:55:00;;;;;;;;;45.75;43.50;;;;;1.85;73.36;100464.06;4804520;29;45318;-80
2024/01/16 05:57:26;;;;;;;;;49.00;46.00;;;;;1.87;73.53;100456.28;4806003;29;45389;-80
2024/01/16 05:59:51;;;;;;;;;49.50;43.75;;;;;1.80;73.96;100445.53;4806817;29;44830;-79
2024/01/16 06:02:17;;;;;;;;;48.25;43.25;;;;;1.87;73.85;100451.91;4804957;29;47097;-79
2024/01/16 06:04:42;;;;;;;;;47.00;43.25;;;;;1.78;73.90;100438.44;4805960;29;44932;-79
2024/01/16 06:07:08;;;;;;;;;59.00;48.25;;;;;1.80;74.08;100439.38;4820430;29;44993;-80
2024/01/16 06:09:38;;;;;;;;;53.00;47.00;;;;;1.78;73.71;100441.94;4818284;29;44883;-80
2024/01/16 06:12:03;;;;;;;;;54.00;45.25;;;;;1.68;73.95;100434.50;4805407;29;45077;-80
2024/01/16 06:14:29;;;;;;;;;52.50;45.00;;;;;1.69;74.20;100435.38;4818083;29;45111;-80
2024/01/16 06:16:57;;;;;;;;;46.75;42.75;;;;;1.65;74.04;100438.69;4802217;29;44950;-79
2024/01/16 06:19:22;;;;;;;;;35.75;34.25;;;;;1.64;73.64;100439.50;4805129;29;44945;-78
2024/01/16 06:21:48;;;;;;;;;34.75;32.25;;;;;1.57;73.99;100439.22;4805273;29;47194;-79
2024/01/16 06:27:36;;;;;;;;;39.50;38.00;;;;;1.66;74.37;100449.25;4807292;29;44822;-79
2024/01/16 06:30:03;;;;;;;;;36.50;34.25;;;;;1.58;74.21;100453.25;4822271;29;44895;-81
2024/01/16 06:32:29;;;;;;;;;34.50;32.50;;;;;1.61;74.28;100448.13;4821360;29;47514;-78
2024/01/16 06:34:57;;;;;;;;;35.75;32.50;;;;;1.53;74.21;100439.91;4806624;29;45275;-79
2024/01/16 06:37:22;;;;;;;;;39.50;38.00;;;;;1.47;74.05;100438.75;4805874;29;45341;-80
2024/01/16 06:39:47;;;;;;;;;33.25;30.75;;;;;1.49;74.12;100451.09;4820586;29;44962;-79
2024/01/16 06:42:13;;;;;;;;;28.50;24.00;;;;;1.44;74.47;100459.59;4803257;29;47360;-80
2024/01/16 06:44:38;;;;;;;;;33.50;32.25;;;;;1.46;74.18;100458.81;4804416;29;44932;-80
2024/01/16 06:47:04;;;;;;;;;37.25;32.00;;;;;1.40;74.26;100448.94;4805139;29;44849;-79
2024/01/16 06:49:31;;;;;;;;;35.50;31.00;;;;;1.42;74.43;100456.00;4819498;29;45370;-80
2024/01/16 06:51:58;;;;;;;;;41.00;31.33;;;;;1.42;74.52;100463.88;4804875;29;46860;-79
2024/01/16 06:54:25;;;;;;;;;35.00;29.50;;;;;1.40;74.13;100454.19;4806121;29;44817;-80
2024/01/16 06:56:51;;;;;;;;;35.25;31.50;;;;;1.39;74.41;100457.66;4822794;29;44798;-82
2024/01/16 06:59:19;;;;;;;;;29.00;28.33;;;;;1.34;74.27;100469.63;4807998;29;45033;-81
2024/01/16 07:01:44;;;;;;;;;35.50;30.75;;;;;1.30;74.28;100470.31;4801700;29;45007;-79
2024/01/16 07:04:10;;;;;;;;;41.25;35.75;;;;;1.32;74.68;100452.94;4821501;29;44852;-79
2024/01/16 07:06:35;;;;;;;;;29.25;29.25;;;;;1.35;74.47;100460.97;4843299;29;44813;-80
2024/01/16 07:09:05;;;;;;;;;23.50;22.25;;;;;1.40;74.89;100451.56;4830685;29;44857;-81
2024/01/16 07:11:30;;;;;;;;;32.75;29.75;;;;;1.38;74.51;100465.44;4845769;29;47407;-81
2024/01/16 07:13:56;;;;;;;;;31.25;29.50;;;;;1.43;74.44;100477.00;4846429;29;44929;-79
2024/01/16 07:16:21;;;;;;;;;38.75;31.00;;;;;1.48;74.63;100466.78;4824461;29;45206;-80
2024/01/16 07:18:48;;;;;;;;;32.25;28.00;;;;;1.45;74.37;100466.59;4812345;29;44853;-81
2024/01/16 07:21:17;;;;;;;;;36.75;32.25;;;;;1.56;74.66;100465.41;4812833;29;45837;-80
2024/01/16 07:23:44;;;;;;;;;24.75;24.00;;;;;1.51;74.36;100466.88;4813592;29;44911;-83
2024/01/16 07:26:10;;;;;;;;;27.25;27.25;;;;;1.45;74.67;100467.50;4827775;29;44870;-80
2024/01/16 07:28:37;;;;;;;;;43.50;36.00;;;;;1.53;74.57;100458.25;4845685;29;45218;-80
2024/01/16 07:31:02;;;;;;;;;37.75;31.00;;;;;1.48;74.62;100457.16;4830505;29;46790;-80
2024/01/16 07:33:28;;;;;;;;;34.67;28.00;;;;;1.51;74.70;100467.78;4873059;29;45104;-80
2024/01/16 07:35:57;;;;;;;;;36.50;34.25;;;;;1.60;74.69;100477.81;4843192;29;44955;-80
2024/01/16 07:38:22;;;;;;;;;43.75;38.00;;;;;1.51;74.72;100466.88;4842676;29;44932;-79
2024/01/16 07:40:51;;;;;;;;;28.00;26.00;;;;;1.58;74.81;100463.75;4840427;29;45225;-78
2024/01/16 07:43:17;;;;;;;;;40.75;36.50;;;;;1.43;74.31;100453.44;4844398;29;44795;-80
2024/01/16 07:45:42;;;;;;;;;36.75;36.75;;;;;1.39;75.06;100443.63;4843770;29;44809;-78
2024/01/16 07:48:08;;;;;;;;;32.75;32.75;;;;;1.47;75.36;100462.34;4872599;29;44920;-80
2024/01/16 07:50:33;;;;;;;;;39.75;35.75;;;;;1.50;75.40;100468.63;4874262;29;47237;-79
2024/01/16 07:52:59;;;;;;;;;40.25;32.50;;;;;1.44;74.60;100462.22;4875497;29;44865;-83
2024/01/16 07:55:37;;;;;;;;;34.50;34.50;;;;;1.56;75.16;100454.91;4865460;29;45442;-84
2024/01/16 07:58:07;;;;;;;;;43.00;40.50;;;;;1.58;75.14;100476.84;4856521;29;45328;-83
2024/01/16 08:00:42;;;;;;;;;35.25;34.50;;;;;1.56;75.08;100478.50;4829546;29;47268;-83
2024/01/16 08:03:45;;;;;;;;;38.25;34.25;;;;;1.68;74.73;100465.94;4851345;29;45642;-82
2024/01/16 08:06:11;;;;;;;;;38.75;36.75;;;;;1.54;74.82;100462.69;4868627;29;45204;-82
2024/01/16 08:08:45;;;;;;;;;41.00;37.75;;;;;1.62;74.63;100476.16;4841583;29;45703;-82
2024/01/16 08:11:12;;;;;;;;;44.50;41.50;;;;;1.37;74.60;100430.50;4839126;29;47042;-80
2024/01/16 08:13:38;;;;;;;;;42.25;39.25;;;;;1.47;74.45;100434.41;4871660;29;44889;-79
2024/01/16 08:16:21;;;;;;;;;42.00;39.25;;;;;1.72;74.43;100451.25;4836339;29;45803;-82
2024/01/16 08:18:49;;;;;;;;;41.25;37.25;;;;;1.57;75.20;100426.13;4836691;29;45347;-84
2024/01/16 08:21:15;;;;;;;;;36.00;32.75;;;;;1.60;74.29;100430.63;4821212;29;45404;-82
2024/01/16 08:23:47;;;;;;;;;40.25;33.25;;;;;1.83;74.72;100468.34;4820212;29;45390;-80
2024/01/16 08:26:16;;;;;;;;;46.25;43.00;;;;;1.97;74.04;100472.47;4817165;29;44967;-80
2024/01/16 08:28:41;;;;;;;;;37.25;33.00;;;;;1.91;74.27;100472.22;4812921;29;45271;-79
2024/01/16 08:31:06;;;;;;;;;50.75;43.50;;;;;1.95;74.12;100461.03;4814553;29;45829;-80
2024/01/16 08:33:32;;;;;;;;;41.00;38.75;;;;;1.94;74.23;100463.56;4811496;29;45443;-80
2024/01/16 08:36:00;;;;;;;;;56.25;45.75;;;;;1.96;74.35;100467.16;4812621;29;45512;-80
2024/01/16 08:38:26;;;;;;;;;39.50;39.50;;;;;1.95;74.24;100465.38;4813240;29;44862;-78
2024/01/16 08:40:54;;;;;;;;;53.75;47.75;;;;;2.08;74.19;100477.28;4814097;29;46799;-79
2024/01/16 08:43:19;;;;;;;;;50.25;43.50;;;;;2.05;73.98;100449.22;4831256;29;44876;-80
2024/01/16 08:45:45;;;;;;;;;56.25;47.50;;;;;2.18;74.22;100453.25;4819432;29;45516;-78
2024/01/16 08:48:12;;;;;;;;;44.00;43.25;;;;;2.15;74.06;100438.28;4815098;29;44877;-79
2024/01/16 08:50:38;;;;;;;;;55.50;46.50;;;;;2.25;73.86;100462.31;4810170;29;47742;-78
2024/01/16 08:53:06;;;;;;;;;44.50;40.50;;;;;2.17;73.68;100441.88;4828423;29;45371;-80
2024/01/16 08:55:37;;;;;;;;;48.00;38.00;;;;;2.00;73.81;100403.56;4835719;29;44935;-80
2024/01/16 08:58:03;;;;;;;;;50.25;47.25;;;;;2.13;73.80;100447.81;4835111;29;44768;-82
2024/01/16 09:00:28;;;;;;;;;52.00;46.25;;;;;2.01;73.88;100421.06;4836572;29;45300;-80
2024/01/16 09:02:55;;;;;;;;;62.25;50.25;;;;;2.22;73.74;100444.69;4834008;29;44914;-80
2024/01/16 09:05:25;;;;;;;;;49.25;44.75;;;;;2.23;73.85;100458.72;4838176;29;45451;-82
2024/01/16 09:07:50;;;;;;;;;53.75;46.25;;;;;2.10;73.59;100431.97;4835037;29;45409;-79
2024/01/16 09:10:17;;;;;;;;;52.00;46.25;;;;;2.13;73.97;100442.56;4841430;29;45828;-79
2024/01/16 09:12:44;;;;;;;;;53.50;46.25;;;;;2.23;73.91;100445.59;4824885;29;46234;-79
2024/01/16 09:15:10;;;;;;;;;55.50;50.25;;;;;2.14;73.80;100441.75;4842577;29;44702;-80
2024/01/16 09:17:36;;;;;;;;;63.75;50.75;;;;;2.29;74.05;100452.00;4843221;29;44934;-80
2024/01/16 09:20:21;;;;;;;;;63.50;51.50;;;;;2.36;74.02;100458.41;4846172;29;46804;-80
2024/01/16 09:22:47;;;;;;;;;63.00;48.00;;;;;2.42;74.06;100450.78;4842249;29;44956;-80
2024/01/16 09:25:24;;;;;;;;;;;;;;;;;;;;;
2024/01/16 09:27:50;;;;;;;;;51.75;45.75;;;;;2.39;73.73;100421.78;4835867;29;64913;-79
2024/01/16 09:30:22;;;;;;;;;59.50;50.00;;;;;2.69;73.73;100447.53;4836106;29;45907;-80
2024/01/16 09:32:55;;;;;;;;;57.25;50.00;;;;;2.66;73.80;100452.63;4825170;29;45355;-81
2024/01/16 09:35:22;;;;;;;;;65.00;52.00;;;;;2.62;73.77;100430.59;4836716;29;45156;-81
2024/01/16 09:37:54;;;;;;;;;59.25;51.00;;;;;2.75;73.70;100427.66;4841912;29;45888;-81
2024/01/16 09:46:05;;;;;;;;;63.50;52.25;;;;;2.90;73.18;100421.22;5000576;23;47057;-85
2024/01/16 09:48:38;;;;;;;;;74.50;56.75;;;;;2.77;73.63;100394.47;4889444;29;45493;-80
2024/01/16 09:51:20;;;;;;;;;;;;;;;;;;;;;
2024/01/16 09:53:52;;;;;;;;;73.75;56.75;;;;;2.88;73.45;100389.63;4822916;29;72385;-82
2024/01/16 09:56:52;;;;;;;;;65.00;55.00;;;;;2.92;73.46;100377.53;4820815;29;45508;-81
2024/01/16 09:59:23;;;;;;;;;75.25;60.00;;;;;3.10;73.28;100422.00;4783906;29;45861;-81
2024/01/16 10:01:56;;;;;;;;;74.50;60.25;;;;;2.87;73.60;100380.00;4789148;29;45760;-83
2024/01/16 10:04:27;;;;;;;;;64.25;54.00;;;;;3.22;73.27;100424.22;4793638;29;45518;-82
2024/01/16 10:07:28;;;;;;;;;70.00;57.50;;;;;3.31;73.15;100409.72;4792821;29;45548;-81
2024/01/16 10:10:34;;;;;;;;;;;;;;;;;;;;;
2024/01/16 10:13:09;;;;;;;;;65.50;55.50;;;;;3.51;72.97;100417.44;4738494;30;76021;-82
2024/01/16 10:15:42;;;;;;;;;71.00;58.75;;;;;3.22;73.19;100377.81;4739407;30;45409;-81
2024/01/16 10:18:33;;;;;;;;;72.00;58.00;;;;;3.43;72.95;100393.47;4742568;29;45500;-81
2024/01/16 10:21:04;;;;;;;;;73.75;61.00;;;;;3.58;73.08;100408.94;4750596;29;45585;-81
2024/01/16 10:23:38;;;;;;;;;71.00;59.00;;;;;3.43;73.11;100359.31;4754916;29;45693;-81
2024/01/16 10:26:10;;;;;;;;;74.00;58.25;;;;;3.57;73.75;100386.97;4756871;29;45069;-80
2024/01/16 10:28:39;;;;;;;;;77.00;62.25;;;;;3.64;73.00;100379.34;4754975;29;45471;-81
2024/01/16 10:31:14;;;;;;;;;77.75;62.50;;;;;3.63;72.80;100364.41;4748046;29;45440;-82
2024/01/16 10:34:20;;;;;;;;;75.75;62.25;;;;;3.92;72.82;100412.75;4730481;29;46168;-81
2024/01/16 10:37:03;;;;;;;;;73.25;59.25;;;;;3.75;72.73;100355.19;4764800;29;45495;-81
2024/01/16 10:39:32;;;;;;;;;77.50;62.00;;;;;3.79;73.05;100372.00;4787664;29;45834;-82
2024/01/16 10:42:03;;;;;;;;;73.00;61.75;;;;;3.82;72.88;100348.44;4801544;29;44809;-83
2024/01/16 10:44:29;;;;;;;;;73.00;59.00;;;;;3.78;72.06;100350.06;4792410;29;47441;-81
2024/01/16 10:47:13;;;;;;;;;71.00;57.50;;;;;3.97;72.32;100334.91;4791889;29;45807;-82
2024/01/16 10:53:08;;;;;;;;;;;;;;;;;;;;;
2024/01/16 10:56:02;;;;;;;;;28.00;26.67;;;;;4.26;68.06;100353.41;4788635;29;74556;-82
2024/01/16 10:58:31;;;;;;;;;25.33;25.00;;;;;4.39;68.90;100372.28;4797911;29;45456;-82
2024/01/16 11:01:01;;;;;;;;;19.00;17.33;;;;;4.33;67.99;100363.31;4836469;29;45412;-83
2024/01/16 11:03:53;;;;;;;;;15.67;15.67;;;;;4.50;66.06;100363.84;4848110;29;45680;-81
2024/01/16 11:06:27;;;;;;;;;17.33;17.33;;;;;4.34;66.53;100362.44;4859349;29;47384;-82
2024/01/16 11:09:30;;;;;;;;;16.67;15.67;;;;;4.39;66.87;100359.13;4843484;29;45169;-83
2024/01/16 11:12:11;;;;;;;;;20.33;15.33;;;;;4.63;67.20;100371.31;4872100;29;46392;-84
2024/01/16 11:17:24;;;;;;;;;18.33;16.00;;;;;4.59;66.12;100351.88;5128903;23;46444;-81
2024/01/16 11:19:58;;;;;;;;;22.67;19.33;;;;;4.49;66.48;100328.72;4858530;29;45410;-83
2024/01/16 11:22:25;;;;;;;;;15.33;15.33;;;;;4.60;66.31;100351.03;4850723;29;44839;-83
2024/01/16 11:25:19;;;;;;;;;21.67;19.67;;;;;4.82;64.50;100354.34;4854675;29;45358;-82
2024/01/16 11:27:52;;;;;;;;;21.00;19.00;;;;;4.81;65.39;100342.03;4863056;29;47007;-82
2024/01/16 11:30:47;;;;;;;;;29.00;28.67;;;;;4.68;66.41;100311.75;4872963;29;45329;-82
2024/01/16 11:33:41;;;;;;;;;37.00;31.33;;;;;5.02;66.33;100354.94;4844306;29;45547;-81
2024/01/16 11:36:51;;;;;;;;;31.33;31.33;;;;;4.92;65.44;100327.41;4849272;29;45165;-82
2024/01/16 11:43:00;;;;;;;;;21.67;19.67;;;;;4.88;64.29;100314.09;4864001;29;44903;-82
2024/01/16 11:46:14;;;;;;;;;22.67;21.67;;;;;5.27;64.08;100351.31;4865662;29;45412;-84
2024/01/16 11:51:48;;;;;;;;;26.00;23.00;;;;;5.28;64.26;100352.19;5781720;23;46759;-81
2024/01/16 12:38:13;;;;;;;;;18.67;16.00;;;;;5.80;61.29;100246.34;5601693;23;45093;-81
2024/01/16 12:43:28;;;;;;;;;16.00;14.33;;;;;5.87;61.07;100228.03;2649815;23;45832;-85
2024/01/16 13:12:24;;;;;;;;;9.00;9.00;;;;;5.67;57.59;100183.56;4891388;29;45427;-83
2024/01/16 13:25:17;;;;;;;;;5.67;5.33;;;;;5.79;57.83;100161.88;4847004;23;46357;-81
2024/01/16 13:28:14;;;;;;;;;;;;;;;;;;;;;
2024/01/16 13:31:00;;;;;;;;;8.00;6.00;;;;;5.69;57.12;100144.94;4881025;29;64662;-85